sensor_id;sensor_type;location;lat;lon;timestamp;pressure;altitude;pressure_sealevel;temperature;humidity
27958;BME280;15295;42.658;23.374;2023-05-20T00:05:43;94877.56;;;16.93;56.46
27958;BME280;15295;42.658;23.374;2023-05-20T00:08:38;94894.47;;;17.12;56.32
27958;BME280;15295;42.658;23.374;2023-05-20T00:11:07;94889.66;;;17.00;56.52
27958;BME280;15295;42.658;23.374;2023-05-20T00:16:45;94932.97;;;17.19;57.33
27958;BME280;15295;42.658;23.374;2023-05-20T00:22:12;94897.47;;;16.85;57.47
27958;BME280;15295;42.658;23.374;2023-05-20T00:33:14;94863.75;;;16.77;57.82
27958;BME280;15295;42.658;23.374;2023-05-20T00:35:50;94921.50;;;17.04;57.56
27958;BME280;15295;42.658;23.374;2023-05-20T00:38:47;94884.28;;;16.76;57.46
27958;BME280;15295;42.658;23.374;2023-05-20T00:41:31;94877.34;;;16.68;57.71
27958;BME280;15295;42.658;23.374;2023-05-20T00:44:02;94857.88;;;16.40;57.72
27958;BME280;15295;42.658;23.374;2023-05-20T00:46:41;94851.31;;;16.34;57.80
27958;BME280;15295;42.658;23.374;2023-05-20T00:49:11;94911.34;;;16.65;58.34
27958;BME280;15295;42.658;23.374;2023-05-20T00:51:38;94874.06;;;16.38;58.41
27958;BME280;15295;42.658;23.374;2023-05-20T00:54:16;94873.00;;;16.32;58.95
27958;BME280;15295;42.658;23.374;2023-05-20T00:56:44;94893.78;;;16.56;58.58
27958;BME280;15295;42.658;23.374;2023-05-20T00:59:11;94891.03;;;16.56;58.67
27958;BME280;15295;42.658;23.374;2023-05-20T01:01:51;94883.97;;;16.35;59.19
27958;BME280;15295;42.658;23.374;2023-05-20T01:04:17;94887.44;;;16.39;59.12
27958;BME280;15295;42.658;23.374;2023-05-20T01:06:54;94878.81;;;16.37;59.44
27958;BME280;15295;42.658;23.374;2023-05-20T01:09:54;94838.81;;;16.09;59.48
27958;BME280;15295;42.658;23.374;2023-05-20T01:12:56;94887.88;;;16.38;59.35
27958;BME280;15295;42.658;23.374;2023-05-20T01:15:31;94869.13;;;16.29;59.49
27958;BME280;15295;42.658;23.374;2023-05-20T01:18:04;94853.09;;;16.24;59.23
27958;BME280;15295;42.658;23.374;2023-05-20T01:21:01;94887.22;;;16.50;59.38
27958;BME280;15295;42.658;23.374;2023-05-20T01:23:49;94891.03;;;16.56;59.28
27958;BME280;15295;42.658;23.374;2023-05-20T01:26:20;94898.13;;;16.57;59.05
27958;BME280;15295;42.658;23.374;2023-05-20T01:28:51;94904.53;;;16.70;58.75
27958;BME280;15295;42.658;23.374;2023-05-20T01:31:31;94889.56;;;16.51;58.60
27958;BME280;15295;42.658;23.374;2023-05-20T01:34:04;94886.59;;;16.42;58.93
27958;BME280;15295;42.658;23.374;2023-05-20T01:36:41;94883.69;;;16.30;59.33
27958;BME280;15295;42.658;23.374;2023-05-20T01:39:35;94915.59;;;16.50;59.37
27958;BME280;15295;42.658;23.374;2023-05-20T01:42:04;94847.59;;;16.04;59.14
27958;BME280;15295;42.658;23.374;2023-05-20T01:44:41;94856.06;;;16.13;59.39
27958;BME280;15295;42.658;23.374;2023-05-20T01:47:09;94871.19;;;16.25;59.29
27958;BME280;15295;42.658;23.374;2023-05-20T01:49:42;94901.47;;;16.45;59.21
27958;BME280;15295;42.658;23.374;2023-05-20T01:52:15;94872.03;;;16.22;59.05
27958;BME280;15295;42.658;23.374;2023-05-20T01:55:09;94839.66;;;16.06;59.14
27958;BME280;15295;42.658;23.374;2023-05-20T01:57:45;94843.69;;;16.02;59.18
27958;BME280;15295;42.658;23.374;2023-05-20T02:00:49;94900.44;;;16.39;59.29
27958;BME280;15295;42.658;23.374;2023-05-20T02:03:27;94863.41;;;16.20;59.17
27958;BME280;15295;42.658;23.374;2023-05-20T02:05:58;94858.34;;;16.18;58.71
27958;BME280;15295;42.658;23.374;2023-05-20T02:08:46;94888.47;;;16.45;58.74
27958;BME280;15295;42.658;23.374;2023-05-20T02:11:34;94891.94;;;16.49;58.64
27958;BME280;15295;42.658;23.374;2023-05-20T02:14:02;94880.78;;;16.37;58.60
27958;BME280;15295;42.658;23.374;2023-05-20T02:16:58;94896.28;;;16.50;58.38
27958;BME280;15295;42.658;23.374;2023-05-20T02:19:46;94883.84;;;16.42;58.04
27958;BME280;15295;42.658;23.374;2023-05-20T02:22:24;94835.63;;;16.11;58.03
27958;BME280;15295;42.658;23.374;2023-05-20T02:24:51;94839.88;;;16.15;57.67
27958;BME280;15295;42.658;23.374;2023-05-20T02:27:24;94892.75;;;16.30;57.94
27958;BME280;15295;42.658;23.374;2023-05-20T02:30:05;94892.00;;;16.10;58.79
27958;BME280;15295;42.658;23.374;2023-05-20T02:32:49;94863.88;;;15.99;58.16
27958;BME280;15295;42.658;23.374;2023-05-20T02:35:20;94864.66;;;15.99;58.27
27958;BME280;15295;42.658;23.374;2023-05-20T02:37:46;94885.69;;;16.09;58.60
27958;BME280;15295;42.658;23.374;2023-05-20T02:40:34;94880.97;;;16.10;58.42
27958;BME280;15295;42.658;23.374;2023-05-20T02:43:11;94844.56;;;15.79;58.79
27958;BME280;15295;42.658;23.374;2023-05-20T02:45:37;94868.09;;;15.84;58.61
27958;BME280;15295;42.658;23.374;2023-05-20T02:48:04;94859.75;;;15.68;58.96
27958;BME280;15295;42.658;23.374;2023-05-20T02:50:38;94889.22;;;15.90;58.58
27958;BME280;15295;42.658;23.374;2023-05-20T02:53:11;94864.41;;;15.71;58.84
27958;BME280;15295;42.658;23.374;2023-05-20T02:55:40;94876.13;;;15.75;58.91
27958;BME280;15295;42.658;23.374;2023-05-20T02:58:32;94883.50;;;15.81;58.91
27958;BME280;15295;42.658;23.374;2023-05-20T03:01:06;94858.25;;;15.63;58.39
27958;BME280;15295;42.658;23.374;2023-05-20T03:03:41;94851.19;;;15.62;58.46
27958;BME280;15295;42.658;23.374;2023-05-20T03:06:10;94872.75;;;15.67;58.40
27958;BME280;15295;42.658;23.374;2023-05-20T03:08:49;94894.31;;;15.92;57.91
27958;BME280;15295;42.658;23.374;2023-05-20T03:11:59;94899.00;;;15.95;57.81
27958;BME280;15295;42.658;23.374;2023-05-20T03:14:36;94902.16;;;15.93;58.10
27958;BME280;15295;42.658;23.374;2023-05-20T03:17:21;94908.94;;;15.89;58.34
27958;BME280;15295;42.658;23.374;2023-05-20T03:20:23;94909.22;;;15.94;57.95
27958;BME280;15295;42.658;23.374;2023-05-20T03:23:11;94873.47;;;15.71;58.32
27958;BME280;15295;42.658;23.374;2023-05-20T03:25:48;94873.59;;;15.84;58.33
27958;BME280;15295;42.658;23.374;2023-05-20T03:28:38;94908.88;;;16.12;58.31
27958;BME280;15295;42.658;23.374;2023-05-20T03:31:07;94841.88;;;15.76;57.94
27958;BME280;15295;42.658;23.374;2023-05-20T03:33:36;94915.31;;;16.25;57.47
27958;BME280;15295;42.658;23.374;2023-05-20T03:36:04;94921.25;;;16.23;57.42
27958;BME280;15295;42.658;23.374;2023-05-20T03:38:52;94885.63;;;16.13;57.80
27958;BME280;15295;42.658;23.374;2023-05-20T03:41:25;94916.16;;;16.22;57.73
27958;BME280;15295;42.658;23.374;2023-05-20T03:43:57;94875.84;;;15.89;58.13
27958;BME280;15295;42.658;23.374;2023-05-20T03:46:25;94903.63;;;16.17;58.06
27958;BME280;15295;42.658;23.374;2023-05-20T03:49:04;94867.09;;;15.94;57.75
27958;BME280;15295;42.658;23.374;2023-05-20T03:51:34;94884.34;;;15.98;57.98
27958;BME280;15295;42.658;23.374;2023-05-20T03:54:04;94856.22;;;15.87;58.24
27958;BME280;15295;42.658;23.374;2023-05-20T03:56:57;94925.22;;;16.42;58.15
27958;BME280;15295;42.658;23.374;2023-05-20T03:59:32;94929.94;;;16.42;57.06
27958;BME280;15295;42.658;23.374;2023-05-20T04:02:04;94875.00;;;15.72;56.39
27958;BME280;15295;42.658;23.374;2023-05-20T04:04:40;94923.38;;;15.96;56.64
27958;BME280;15295;42.658;23.374;2023-05-20T04:07:07;94944.72;;;16.12;56.86
27958;BME280;15295;42.658;23.374;2023-05-20T04:09:44;94921.44;;;15.93;56.54
27958;BME280;15295;42.658;23.374;2023-05-20T04:12:15;94918.06;;;15.86;56.79
27958;BME280;15295;42.658;23.374;2023-05-20T04:14:47;94904.75;;;15.81;56.71
27958;BME280;15295;42.658;23.374;2023-05-20T04:17:21;94891.50;;;15.53;56.90
27958;BME280;15295;42.658;23.374;2023-05-20T04:20:01;94924.28;;;15.90;56.61
27958;BME280;15295;42.658;23.374;2023-05-20T04:22:49;94901.22;;;15.37;57.25
27958;BME280;15295;42.658;23.374;2023-05-20T04:25:16;94931.88;;;15.63;57.62
27958;BME280;15295;42.658;23.374;2023-05-20T04:27:47;94919.03;;;15.53;57.39
27958;BME280;15295;42.658;23.374;2023-05-20T04:30:42;94927.97;;;15.60;57.78
27958;BME280;15295;42.658;23.374;2023-05-20T04:33:52;94915.91;;;15.54;57.40
27958;BME280;15295;42.658;23.374;2023-05-20T04:36:30;94939.25;;;15.69;57.46
27958;BME280;15295;42.658;23.374;2023-05-20T04:39:13;94931.38;;;15.68;57.24
27958;BME280;15295;42.658;23.374;2023-05-20T04:41:46;94935.03;;;15.84;57.06
27958;BME280;15295;42.658;23.374;2023-05-20T04:44:33;94936.94;;;16.07;58.21
27958;BME280;15295;42.658;23.374;2023-05-20T04:47:22;94916.06;;;16.06;56.64
27958;BME280;15295;42.658;23.374;2023-05-20T04:50:11;94948.31;;;16.48;56.35
27958;BME280;15295;42.658;23.374;2023-05-20T04:52:48;94894.00;;;16.26;56.35
27958;BME280;15295;42.658;23.374;2023-05-20T04:55:23;94887.28;;;16.46;56.27
27958;BME280;15295;42.658;23.374;2023-05-20T04:58:11;94877.88;;;16.63;55.92
27958;BME280;15295;42.658;23.374;2023-05-20T05:00:42;94935.78;;;17.15;55.29
27958;BME280;15295;42.658;23.374;2023-05-20T05:03:15;94927.44;;;17.35;54.56
27958;BME280;15295;42.658;23.374;2023-05-20T05:06:15;94879.88;;;17.27;53.82
27958;BME280;15295;42.658;23.374;2023-05-20T05:09:07;94903.72;;;17.53;53.74
27958;BME280;15295;42.658;23.374;2023-05-20T05:12:03;94946.50;;;17.94;53.28
27958;BME280;15295;42.658;23.374;2023-05-20T05:15:08;94957.81;;;18.28;54.30
27958;BME280;15295;42.658;23.374;2023-05-20T05:18:03;94895.31;;;18.30;54.23
27958;BME280;15295;42.658;23.374;2023-05-20T05:20:47;94957.31;;;18.99;52.90
27958;BME280;15295;42.658;23.374;2023-05-20T05:23:48;94935.81;;;19.03;52.15
27958;BME280;15295;42.658;23.374;2023-05-20T05:26:17;94904.69;;;19.12;52.20
27958;BME280;15295;42.658;23.374;2023-05-20T05:29:05;94957.78;;;19.73;50.75
27958;BME280;15295;42.658;23.374;2023-05-20T05:31:33;94926.69;;;19.78;50.76
27958;BME280;15295;42.658;23.374;2023-05-20T05:34:08;94925.75;;;19.94;48.89
27958;BME280;15295;42.658;23.374;2023-05-20T05:36:39;94950.75;;;20.16;49.04
27958;BME280;15295;42.658;23.374;2023-05-20T05:39:28;94939.63;;;20.28;49.15
27958;BME280;15295;42.658;23.374;2023-05-20T05:42:02;94885.25;;;19.96;48.60
27958;BME280;15295;42.658;23.374;2023-05-20T05:44:40;94896.13;;;20.25;50.19
27958;BME280;15295;42.658;23.374;2023-05-20T05:47:25;94956.78;;;20.79;48.52
27958;BME280;15295;42.658;23.374;2023-05-20T05:50:22;94955.75;;;20.86;49.63
27958;BME280;15295;42.658;23.374;2023-05-20T05:53:10;94942.16;;;21.09;48.72
27958;BME280;15295;42.658;23.374;2023-05-20T05:55:35;94935.56;;;21.16;48.71
27958;BME280;15295;42.658;23.374;2023-05-20T05:58:01;94946.94;;;21.39;48.33
27958;BME280;15295;42.658;23.374;2023-05-20T06:00:26;94910.16;;;21.35;47.98
27958;BME280;15295;42.658;23.374;2023-05-20T06:02:52;94948.91;;;21.79;47.73
27958;BME280;15295;42.658;23.374;2023-05-20T06:05:17;94943.56;;;21.93;46.74
27958;BME280;15295;42.658;23.374;2023-05-20T06:10:51;94883.09;;;21.85;47.00
27958;BME280;15295;42.658;23.374;2023-05-20T06:13:34;94906.31;;;22.00;46.84
27958;BME280;15295;42.658;23.374;2023-05-20T06:16:05;94931.66;;;22.29;45.75
27958;BME280;15295;42.658;23.374;2023-05-20T06:18:35;94934.91;;;22.46;44.90
27958;BME280;15295;42.658;23.374;2023-05-20T06:21:17;94918.38;;;22.60;43.94
27958;BME280;15295;42.658;23.374;2023-05-20T06:23:53;94926.25;;;22.71;43.93
27958;BME280;15295;42.658;23.374;2023-05-20T06:26:20;94927.00;;;22.71;44.11
27958;BME280;15295;42.658;23.374;2023-05-20T06:28:54;94903.81;;;22.65;44.81
27958;BME280;15295;42.658;23.374;2023-05-20T06:31:50;94911.97;;;22.87;41.42
27958;BME280;15295;42.658;23.374;2023-05-20T06:34:26;94884.28;;;22.74;41.84
27958;BME280;15295;42.658;23.374;2023-05-20T06:36:53;94887.19;;;22.80;40.75
27958;BME280;15295;42.658;23.374;2023-05-20T06:39:45;94900.78;;;22.96;40.72
27958;BME280;15295;42.658;23.374;2023-05-20T06:42:16;94882.31;;;23.08;40.90
27958;BME280;15295;42.658;23.374;2023-05-20T06:44:53;94886.91;;;23.20;39.84
27958;BME280;15295;42.658;23.374;2023-05-20T06:47:22;94893.22;;;23.29;40.17
27958;BME280;15295;42.658;23.374;2023-05-20T06:49:50;94901.78;;;23.58;39.60
27958;BME280;15295;42.658;23.374;2023-05-20T06:52:15;94881.19;;;23.56;39.43
27958;BME280;15295;42.658;23.374;2023-05-20T06:54:51;94886.94;;;23.76;39.33
27958;BME280;15295;42.658;23.374;2023-05-20T06:57:20;94888.06;;;23.93;39.47
27958;BME280;15295;42.658;23.374;2023-05-20T07:02:42;94923.38;;;24.29;38.09
27958;BME280;15295;42.658;23.374;2023-05-20T07:05:17;94918.94;;;24.37;37.06
27958;BME280;15295;42.658;23.374;2023-05-20T07:07:55;94893.94;;;24.19;36.28
27958;BME280;15295;42.658;23.374;2023-05-20T07:10:29;94888.19;;;24.22;36.79
27958;BME280;15295;42.658;23.374;2023-05-20T07:13:16;94889.44;;;24.36;37.06
27958;BME280;15295;42.658;23.374;2023-05-20T07:35:19;94870.97;;;24.38;36.53
27958;BME280;15295;42.658;23.374;2023-05-20T07:43:10;94901.78;;;24.97;35.62
27958;BME280;15295;42.658;23.374;2023-05-20T07:56:38;94889.44;;;26.08;34.15
27958;BME280;15295;42.658;23.374;2023-05-20T08:02:18;94895.66;;;26.57;33.18
27958;BME280;15295;42.658;23.374;2023-05-20T08:09:54;94902.84;;;26.84;33.05
27958;BME280;15295;42.658;23.374;2023-05-20T08:12:19;94896.63;;;27.00;33.04
27958;BME280;15295;42.658;23.374;2023-05-20T08:14:45;94895.81;;;26.94;31.95
27958;BME280;15295;42.658;23.374;2023-05-20T08:17:10;94895.34;;;27.01;32.93
27958;BME280;15295;42.658;23.374;2023-05-20T08:19:36;94892.38;;;27.10;32.21
27958;BME280;15295;42.658;23.374;2023-05-20T08:22:01;94892.88;;;27.09;31.97
27958;BME280;15295;42.658;23.374;2023-05-20T08:24:27;94894.88;;;27.03;32.17
27958;BME280;15295;42.658;23.374;2023-05-20T08:27:18;94892.19;;;27.19;32.58
27958;BME280;15295;42.658;23.374;2023-05-20T08:29:44;94894.66;;;27.37;31.80
27958;BME280;15295;42.658;23.374;2023-05-20T08:32:13;94885.06;;;27.49;31.25
27958;BME280;15295;42.658;23.374;2023-05-20T08:43:48;94847.63;;;26.70;32.16
27958;BME280;15295;42.658;23.374;2023-05-20T08:46:51;94834.03;;;26.63;32.21
27958;BME280;15295;42.658;23.374;2023-05-20T08:59:29;94847.81;;;27.18;31.82
27958;BME280;15295;42.658;23.374;2023-05-20T09:02:28;94857.03;;;27.24;31.55
27958;BME280;15295;42.658;23.374;2023-05-20T09:05:43;94880.72;;;27.48;31.44
27958;BME280;15295;42.658;23.374;2023-05-20T09:08:49;94847.88;;;27.29;31.39
27958;BME280;15295;42.658;23.374;2023-05-20T09:11:51;94835.84;;;27.23;31.37
27958;BME280;15295;42.658;23.374;2023-05-20T10:35:51;94786.88;;;28.25;28.28
27958;BME280;15295;42.658;23.374;2023-05-20T10:42:48;94733.22;;;28.12;28.02
27958;BME280;15295;42.658;23.374;2023-05-20T10:46:18;94771.56;;;28.32;27.57
27958;BME280;15295;42.658;23.374;2023-05-20T10:49:34;94714.16;;;27.74;28.14
27958;BME280;15295;42.658;23.374;2023-05-20T11:06:52;94744.63;;;27.92;28.53
27958;BME280;15295;42.658;23.374;2023-05-20T11:09:18;94744.34;;;27.84;28.25
27958;BME280;15295;42.658;23.374;2023-05-20T11:11:51;94739.78;;;27.92;27.95
27958;BME280;15295;42.658;23.374;2023-05-20T11:14:23;94723.41;;;27.91;27.55
27958;BME280;15295;42.658;23.374;2023-05-20T11:16:52;94755.59;;;27.90;27.52
27958;BME280;15295;42.658;23.374;2023-05-20T11:19:36;94716.69;;;27.61;28.07
27958;BME280;15295;42.658;23.374;2023-05-20T11:22:08;94721.84;;;27.79;28.31
27958;BME280;15295;42.658;23.374;2023-05-20T11:25:04;94737.69;;;27.82;28.09
27958;BME280;15295;42.658;23.374;2023-05-20T11:28:16;94731.56;;;27.83;28.32
27958;BME280;15295;42.658;23.374;2023-05-20T11:36:44;94710.00;;;27.47;28.35
27958;BME280;15295;42.658;23.374;2023-05-20T11:39:42;94697.72;;;27.44;28.35
27958;BME280;15295;42.658;23.374;2023-05-20T11:42:23;94671.63;;;27.33;28.62
27958;BME280;15295;42.658;23.374;2023-05-20T11:45:38;94658.91;;;27.37;28.03
27958;BME280;15295;42.658;23.374;2023-05-20T11:48:39;94651.13;;;27.10;28.39
27958;BME280;15295;42.658;23.374;2023-05-20T11:51:36;94696.50;;;27.09;28.96
27958;BME280;15295;42.658;23.374;2023-05-20T11:54:29;94650.84;;;26.66;28.99
27958;BME280;15295;42.658;23.374;2023-05-20T11:57:15;94670.06;;;26.79;29.43
27958;BME280;15295;42.658;23.374;2023-05-20T12:00:25;94668.75;;;26.74;29.77
27958;BME280;15295;42.658;23.374;2023-05-20T12:03:50;94704.56;;;26.90;29.76
27958;BME280;15295;42.658;23.374;2023-05-20T12:06:50;94683.56;;;26.80;30.83
27958;BME280;15295;42.658;23.374;2023-05-20T12:13:04;94675.91;;;26.44;30.81
27958;BME280;15295;42.658;23.374;2023-05-20T12:16:10;94672.47;;;26.29;31.65
27958;BME280;15295;42.658;23.374;2023-05-20T12:19:23;94700.75;;;26.31;32.51
27958;BME280;15295;42.658;23.374;2023-05-20T12:24:35;94703.22;;;25.52;33.18
27958;BME280;15295;42.658;23.374;2023-05-20T12:27:22;94716.97;;;24.95;33.72
27958;BME280;15295;42.658;23.374;2023-05-20T12:30:34;94704.13;;;24.53;33.72
27958;BME280;15295;42.658;23.374;2023-05-20T12:33:07;94708.09;;;24.03;34.00
27958;BME280;15295;42.658;23.374;2023-05-20T12:35:41;94736.63;;;24.07;34.81
27958;BME280;15295;42.658;23.374;2023-05-20T12:38:41;94751.81;;;23.68;37.14
27958;BME280;15295;42.658;23.374;2023-05-20T12:41:23;94745.81;;;23.22;38.45
27958;BME280;15295;42.658;23.374;2023-05-20T12:43:55;94743.69;;;22.84;39.20
27958;BME280;15295;42.658;23.374;2023-05-20T12:47:13;94711.28;;;22.63;38.56
27958;BME280;15295;42.658;23.374;2023-05-20T12:49:57;94727.91;;;22.81;38.53
27958;BME280;15295;42.658;23.374;2023-05-20T12:58:07;94681.78;;;22.80;39.55
27958;BME280;15295;42.658;23.374;2023-05-20T13:01:15;94678.06;;;23.07;38.75
27958;BME280;15295;42.658;23.374;2023-05-20T13:04:20;94657.13;;;23.50;38.36
27958;BME280;15295;42.658;23.374;2023-05-20T13:07:26;94666.88;;;23.69;38.06
27958;BME280;15295;42.658;23.374;2023-05-20T13:21:11;94698.31;;;25.26;35.08
27958;BME280;15295;42.658;23.374;2023-05-20T13:23:39;94658.25;;;24.95;35.99
27958;BME280;15295;42.658;23.374;2023-05-20T13:26:05;94679.34;;;24.76;36.14
27958;BME280;15295;42.658;23.374;2023-05-20T13:28:32;94668.19;;;24.46;36.65
27958;BME280;15295;42.658;23.374;2023-05-20T13:31:05;94705.66;;;24.55;37.56
27958;BME280;15295;42.658;23.374;2023-05-20T14:53:12;94636.44;;;23.42;42.58
27958;BME280;15295;42.658;23.374;2023-05-20T15:01:20;94638.19;;;23.16;41.54
27958;BME280;15295;42.658;23.374;2023-05-20T15:04:18;94634.81;;;23.12;41.42
27958;BME280;15295;42.658;23.374;2023-05-20T15:07:09;94568.38;;;22.72;41.00
27958;BME280;15295;42.658;23.374;2023-05-20T15:10:05;94632.91;;;23.18;42.05
27958;BME280;15295;42.658;23.374;2023-05-20T15:12:58;94616.19;;;23.18;42.48
27958;BME280;15295;42.658;23.374;2023-05-20T15:15:29;94638.63;;;23.38;42.39
27958;BME280;15295;42.658;23.374;2023-05-20T15:17:57;94603.91;;;23.24;42.31
27958;BME280;15295;42.658;23.374;2023-05-20T15:20:45;94638.84;;;23.49;42.54
27958;BME280;15295;42.658;23.374;2023-05-20T15:23:14;94613.72;;;23.34;42.72
27958;BME280;15295;42.658;23.374;2023-05-20T15:25:53;94607.78;;;23.56;42.56
27958;BME280;15295;42.658;23.374;2023-05-20T15:28:31;94562.97;;;23.45;42.91
27958;BME280;15295;42.658;23.374;2023-05-20T15:31:00;94569.13;;;23.34;43.06
27958;BME280;15295;42.658;23.374;2023-05-20T15:49:43;94559.03;;;23.37;42.39
27958;BME280;15295;42.658;23.374;2023-05-20T15:57:28;94561.25;;;22.94;43.76
27958;BME280;15295;42.658;23.374;2023-05-20T16:00:10;94619.97;;;23.44;43.85
27958;BME280;15295;42.658;23.374;2023-05-20T16:02:52;94556.34;;;23.04;42.83
27958;BME280;15295;42.658;23.374;2023-05-20T16:05:39;94608.28;;;23.54;42.71
27958;BME280;15295;42.658;23.374;2023-05-20T16:08:41;94555.06;;;23.29;42.34
27958;BME280;15295;42.658;23.374;2023-05-20T16:11:11;94551.94;;;23.12;40.37
27958;BME280;15295;42.658;23.374;2023-05-20T16:14:20;94556.16;;;23.08;39.29
27958;BME280;15295;42.658;23.374;2023-05-20T16:16:55;94554.44;;;23.10;39.69
27958;BME280;15295;42.658;23.374;2023-05-20T16:19:45;94577.78;;;22.98;39.79
27958;BME280;15295;42.658;23.374;2023-05-20T16:22:17;94594.94;;;23.20;40.00
27958;BME280;15295;42.658;23.374;2023-05-20T16:24:45;94610.16;;;23.34;40.33
27958;BME280;15295;42.658;23.374;2023-05-20T16:27:20;94581.75;;;23.21;40.49
27958;BME280;15295;42.658;23.374;2023-05-20T16:29:52;94600.09;;;23.13;41.05
27958;BME280;15295;42.658;23.374;2023-05-20T16:32:26;94590.81;;;23.16;40.56
27958;BME280;15295;42.658;23.374;2023-05-20T16:34:59;94564.03;;;22.94;40.87
27958;BME280;15295;42.658;23.374;2023-05-20T16:37:54;94544.81;;;22.96;40.88
27958;BME280;15295;42.658;23.374;2023-05-20T16:40:28;94559.22;;;22.95;41.26
27958;BME280;15295;42.658;23.374;2023-05-20T16:43:17;94624.13;;;23.34;42.07
27958;BME280;15295;42.658;23.374;2023-05-20T16:45:50;94608.03;;;22.90;42.85
27958;BME280;15295;42.658;23.374;2023-05-20T16:48:26;94603.66;;;22.98;43.31
27958;BME280;15295;42.658;23.374;2023-05-20T16:51:04;94583.56;;;22.71;43.19
27958;BME280;15295;42.658;23.374;2023-05-20T16:53:55;94597.03;;;22.72;43.39
27958;BME280;15295;42.658;23.374;2023-05-20T16:56:46;94584.44;;;22.53;43.00
27958;BME280;15295;42.658;23.374;2023-05-20T16:59:26;94595.38;;;22.66;43.43
27958;BME280;15295;42.658;23.374;2023-05-20T17:01:56;94562.69;;;22.19;43.31
27958;BME280;15295;42.658;23.374;2023-05-20T17:04:28;94566.31;;;22.34;43.18
27958;BME280;15295;42.658;23.374;2023-05-20T17:06:57;94611.50;;;22.53;42.98
27958;BME280;15295;42.658;23.374;2023-05-20T17:10:00;94627.59;;;22.58;43.02
27958;BME280;15295;42.658;23.374;2023-05-20T17:12:47;94613.22;;;22.50;43.10
27958;BME280;15295;42.658;23.374;2023-05-20T17:15:17;94582.31;;;22.15;43.25
27958;BME280;15295;42.658;23.374;2023-05-20T17:17:47;94597.59;;;22.20;43.29
27958;BME280;15295;42.658;23.374;2023-05-20T17:20:21;94641.84;;;22.51;43.46
27958;BME280;15295;42.658;23.374;2023-05-20T17:22:55;94610.94;;;22.16;43.17
27958;BME280;15295;42.658;23.374;2023-05-20T17:25:26;94596.56;;;22.17;43.18
27958;BME280;15295;42.658;23.374;2023-05-20T17:27:53;94651.94;;;22.39;42.34
27958;BME280;15295;42.658;23.374;2023-05-20T17:30:28;94612.22;;;22.06;42.85
27958;BME280;15295;42.658;23.374;2023-05-20T17:33:21;94626.94;;;21.97;42.26
27958;BME280;15295;42.658;23.374;2023-05-20T17:35:55;94581.72;;;21.70;42.27
27958;BME280;15295;42.658;23.374;2023-05-20T17:38:29;94579.53;;;21.74;42.25
27958;BME280;15295;42.658;23.374;2023-05-20T17:41:10;94600.63;;;21.98;42.16
27958;BME280;15295;42.658;23.374;2023-05-20T17:44:11;94647.38;;;22.27;42.79
27958;BME280;15295;42.658;23.374;2023-05-20T17:46:59;94636.63;;;22.11;42.87
27958;BME280;15295;42.658;23.374;2023-05-20T17:49:32;94627.94;;;22.18;42.36
27958;BME280;15295;42.658;23.374;2023-05-20T17:52:28;94660.38;;;22.30;42.02
27958;BME280;15295;42.658;23.374;2023-05-20T17:55:06;94622.44;;;22.00;41.79
27958;BME280;15295;42.658;23.374;2023-05-20T17:57:33;94601.72;;;22.01;42.06
27958;BME280;15295;42.658;23.374;2023-05-20T17:59:59;94647.09;;;22.25;41.26
27958;BME280;15295;42.658;23.374;2023-05-20T18:02:32;94627.78;;;22.21;40.84
27958;BME280;15295;42.658;23.374;2023-05-20T18:05:14;94658.97;;;22.35;40.54
27958;BME280;15295;42.658;23.374;2023-05-20T18:07:46;94671.06;;;22.22;40.89
27958;BME280;15295;42.658;23.374;2023-05-20T18:10:13;94649.19;;;22.06;40.60
27958;BME280;15295;42.658;23.374;2023-05-20T18:15:45;94670.28;;;22.22;40.62
27958;BME280;15295;42.658;23.374;2023-05-20T18:18:37;94657.34;;;22.10;41.06
27958;BME280;15295;42.658;23.374;2023-05-20T18:21:16;94609.81;;;21.81;40.90
27958;BME280;15295;42.658;23.374;2023-05-20T18:23:57;94630.53;;;21.89;41.72
